createdAt,value
2023-02-25T00:02:04.153Z,20.18
2023-02-25T00:04:30.896Z,20.18
2023-02-25T00:06:57.204Z,20.16
2023-02-25T00:09:23.528Z,20.17
2023-02-25T00:11:50.035Z,20.20
2023-02-25T00:14:16.420Z,20.20
2023-02-25T00:16:42.782Z,20.18
2023-02-25T00:19:10.433Z,20.19
2023-02-25T00:21:36.788Z,20.16
2023-02-25T00:24:15.490Z,20.14
2023-02-25T00:26:42.528Z,20.13
2023-02-25T00:29:08.857Z,20.13
2023-02-25T00:31:35.334Z,20.13
2023-02-25T00:34:01.720Z,20.12
2023-02-25T00:36:28.062Z,20.11
2023-02-25T00:38:54.806Z,20.11
2023-02-25T00:41:21.932Z,20.11
2023-02-25T00:43:49.274Z,20.14
2023-02-25T00:46:15.965Z,20.16
2023-02-25T00:48:42.307Z,20.18
2023-02-25T00:51:09.109Z,20.19
2023-02-25T00:53:35.473Z,20.21
2023-02-25T00:56:02.022Z,20.22
2023-02-25T00:58:28.361Z,20.22
2023-02-25T01:00:54.715Z,20.23
2023-02-25T01:03:21.025Z,20.24
2023-02-25T01:05:50.506Z,20.25
2023-02-25T01:08:17.600Z,20.26
2023-02-25T01:10:43.982Z,20.25
2023-02-25T01:13:10.300Z,20.24
2023-02-25T01:15:36.823Z,20.25
2023-02-25T01:18:03.155Z,20.23
2023-02-25T01:20:29.947Z,20.23
2023-02-25T01:22:56.475Z,20.23
2023-02-25T01:25:24.466Z,20.22
2023-02-25T01:27:53.365Z,20.22
2023-02-25T01:30:21.491Z,20.22
2023-02-25T01:32:47.937Z,20.22
2023-02-25T01:35:14.316Z,20.22
2023-02-25T01:37:43.639Z,20.23
2023-02-25T01:40:12.727Z,20.23
2023-02-25T01:42:39.074Z,20.24
2023-02-25T01:45:22.283Z,20.25
2023-02-25T01:47:59.793Z,20.26
2023-02-25T01:50:29.199Z,20.26
2023-02-25T01:52:55.518Z,20.26
2023-02-25T01:55:21.875Z,20.27
2023-02-25T01:57:49.200Z,20.26
2023-02-25T02:00:18.803Z,20.25
2023-02-25T02:02:45.338Z,20.25
2023-02-25T02:05:11.751Z,20.24
2023-02-25T02:07:38.130Z,20.25
2023-02-25T02:10:04.681Z,20.24
2023-02-25T02:12:31.702Z,20.23
2023-02-25T02:14:59.818Z,20.22
2023-02-25T02:17:30.660Z,20.22
2023-02-25T02:20:29.819Z,20.22
2023-02-25T02:23:14.979Z,20.24
2023-02-25T02:25:51.372Z,20.24
2023-02-25T02:28:36.522Z,20.25
2023-02-25T02:31:14.006Z,20.26
2023-02-25T02:33:43.461Z,20.26
2023-02-25T02:36:17.715Z,20.27
2023-02-25T02:38:49.105Z,20.26
2023-02-25T02:41:24.847Z,20.25
2023-02-25T02:43:52.460Z,20.25
2023-02-25T02:46:23.577Z,20.24
2023-02-25T02:48:55.191Z,20.24
2023-02-25T02:51:23.009Z,20.23
2023-02-25T02:53:50.753Z,20.23
2023-02-25T02:56:17.644Z,20.22
2023-02-25T02:58:47.809Z,20.22
2023-02-25T03:01:15.584Z,20.22
2023-02-25T03:03:46.946Z,20.22
2023-02-25T03:06:17.787Z,20.22
2023-02-25T03:08:53.519Z,20.23
2023-02-25T03:11:20.383Z,20.25
2023-02-25T03:13:46.748Z,20.24
2023-02-25T03:16:21.553Z,20.25
2023-02-25T03:18:49.543Z,20.25
2023-02-25T03:21:18.295Z,20.26
2023-02-25T03:23:46.306Z,20.25
2023-02-25T03:26:14.677Z,20.25
2023-02-25T03:28:41.028Z,20.25
2023-02-25T03:31:28.639Z,20.23
2023-02-25T03:33:56.545Z,20.22
2023-02-25T03:36:25.003Z,20.19
2023-02-25T03:38:52.020Z,20.16
2023-02-25T03:41:18.515Z,20.16
2023-02-25T03:43:45.900Z,20.18
2023-02-25T03:46:12.821Z,20.19
2023-02-25T03:48:39.296Z,20.20
2023-02-25T03:51:08.976Z,20.21
2023-02-25T03:53:38.958Z,20.22
2023-02-25T03:56:10.361Z,20.22
2023-02-25T03:58:40.019Z,20.24
2023-02-25T04:01:07.771Z,20.24
2023-02-25T04:03:34.206Z,20.25
2023-02-25T04:06:00.636Z,20.25
2023-02-25T04:08:26.985Z,20.26
2023-02-25T04:10:53.342Z,20.27
2023-02-25T04:13:20.834Z,20.29
2023-02-25T04:15:47.978Z,20.30
2023-02-25T04:18:14.564Z,20.30
2023-02-25T04:20:40.985Z,20.29
2023-02-25T04:23:07.911Z,20.30
2023-02-25T04:25:34.308Z,20.30
2023-02-25T04:28:00.817Z,20.28
2023-02-25T04:30:27.176Z,20.29
2023-02-25T04:32:53.578Z,20.28
2023-02-25T04:35:19.998Z,20.28
2023-02-25T04:37:46.317Z,20.28
2023-02-25T04:40:16.910Z,20.28
2023-02-25T04:42:43.323Z,20.28
2023-02-25T04:45:10.278Z,20.29
2023-02-25T04:47:36.634Z,20.29
2023-02-25T04:50:03.183Z,20.29
2023-02-25T04:52:29.517Z,20.28
2023-02-25T04:54:55.852Z,20.28
2023-02-25T04:57:22.193Z,20.27
2023-02-25T04:59:48.508Z,20.26
2023-02-25T05:02:14.931Z,20.26
2023-02-25T05:04:41.688Z,20.26
2023-02-25T05:07:08.130Z,20.27
2023-02-25T05:09:34.447Z,20.28
2023-02-25T05:12:00.771Z,20.28
2023-02-25T05:14:27.084Z,20.29
2023-02-25T05:16:53.466Z,20.30
2023-02-25T05:19:22.214Z,20.30
2023-02-25T05:21:49.063Z,20.31
2023-02-25T05:24:15.400Z,20.32
2023-02-25T05:26:41.879Z,20.33
2023-02-25T05:29:08.436Z,20.33
2023-02-25T05:31:34.912Z,20.33
2023-02-25T05:34:01.342Z,20.33
2023-02-25T05:36:28.561Z,20.31
2023-02-25T05:38:55.438Z,20.30
2023-02-25T05:41:21.810Z,20.30
2023-02-25T05:43:48.119Z,20.30
2023-02-25T05:46:14.433Z,20.30
2023-02-25T05:48:41.297Z,20.30
2023-02-25T05:51:08.472Z,20.30
2023-02-25T05:53:34.905Z,20.32
2023-02-25T05:56:03.897Z,20.31
2023-02-25T05:58:30.306Z,20.33
2023-02-25T06:00:56.664Z,20.34
2023-02-25T06:03:23.052Z,20.33
2023-02-25T06:05:49.469Z,20.33
2023-02-25T06:08:15.808Z,20.33
2023-02-25T06:10:42.132Z,20.34
2023-02-25T06:13:08.704Z,20.33
2023-02-25T06:15:38.480Z,20.32
2023-02-25T06:18:04.835Z,20.30
2023-02-25T06:20:31.172Z,20.31
2023-02-25T06:22:57.521Z,20.31
2023-02-25T06:25:29.805Z,20.32
2023-02-25T06:27:56.822Z,20.33
2023-02-25T06:30:23.399Z,20.33
2023-02-25T06:32:49.820Z,20.33
2023-02-25T06:35:16.186Z,20.35
2023-02-25T06:37:42.974Z,20.36
2023-02-25T06:40:12.332Z,20.21
2023-02-25T06:42:38.746Z,19.11
2023-02-25T06:45:05.152Z,18.65
2023-02-25T06:47:31.507Z,18.59
2023-02-25T06:49:57.838Z,18.54
2023-02-25T06:52:24.245Z,18.48
2023-02-25T06:54:50.712Z,18.48
2023-02-25T06:57:17.052Z,18.23
2023-02-25T06:59:43.377Z,18.02
2023-02-25T07:02:12.407Z,17.97
2023-02-25T07:04:38.843Z,18.19
2023-02-25T07:07:05.207Z,19.00
2023-02-25T07:09:31.833Z,19.45
2023-02-25T07:11:58.207Z,19.09
2023-02-25T07:14:24.578Z,19.33
2023-02-25T07:16:51.233Z,19.56
2023-02-25T07:19:17.604Z,19.69
2023-02-25T07:21:44.046Z,19.77
2023-02-25T07:24:10.844Z,19.81
2023-02-25T07:26:38.209Z,19.83
2023-02-25T07:29:04.992Z,19.86
2023-02-25T07:31:31.500Z,19.89
2023-02-25T07:33:59.977Z,19.90
2023-02-25T07:36:27.417Z,19.93
2023-02-25T07:38:54.158Z,19.90
2023-02-25T07:41:20.536Z,19.56
2023-02-25T07:43:46.948Z,19.69
2023-02-25T07:46:13.473Z,19.80
2023-02-25T07:48:39.940Z,19.86
2023-02-25T07:51:06.875Z,19.91
2023-02-25T07:53:33.555Z,19.93
2023-02-25T07:56:00.046Z,19.95
2023-02-25T07:58:28.487Z,19.96
2023-02-25T08:00:55.076Z,19.99
2023-02-25T08:03:21.423Z,19.99
2023-02-25T08:05:50.048Z,19.99
2023-02-25T08:08:16.398Z,20.00
2023-02-25T08:10:43.189Z,19.96
2023-02-25T08:13:09.530Z,20.00
2023-02-25T08:15:39.674Z,20.02
2023-02-25T08:18:06.049Z,20.03
2023-02-25T08:20:32.369Z,20.03
2023-02-25T08:22:59.074Z,20.02
2023-02-25T08:25:25.451Z,20.05
2023-02-25T08:27:51.782Z,20.12
2023-02-25T08:30:18.263Z,20.11
2023-02-25T08:32:44.727Z,20.16
2023-02-25T08:35:11.198Z,20.23
2023-02-25T08:37:37.647Z,20.50
2023-02-25T08:40:10.591Z,20.58
2023-02-25T08:42:37.213Z,20.75
2023-02-25T08:45:03.878Z,20.79
2023-02-25T08:47:30.569Z,20.76
2023-02-25T08:49:56.893Z,20.76
2023-02-25T08:52:23.212Z,20.80
2023-02-25T08:54:50.836Z,20.93
2023-02-25T08:57:17.158Z,21.00
2023-02-25T08:59:43.521Z,20.96
2023-02-25T09:02:10.293Z,20.96
2023-02-25T09:04:36.722Z,20.96
2023-02-25T09:07:03.265Z,20.98
2023-02-25T09:09:29.609Z,21.05
2023-02-25T09:11:55.931Z,21.08
2023-02-25T09:14:35.158Z,21.18
2023-02-25T09:17:04.528Z,21.23
2023-02-25T09:19:31.259Z,21.22
2023-02-25T09:21:57.649Z,21.15
2023-02-25T09:24:24.103Z,21.31
2023-02-25T09:26:50.418Z,21.53
2023-02-25T09:29:22.763Z,20.57
2023-02-25T09:31:49.444Z,20.80
2023-02-25T09:34:15.908Z,20.95
2023-02-25T09:36:42.349Z,20.96
2023-02-25T09:39:10.130Z,21.01
2023-02-25T09:41:40.194Z,21.06
2023-02-25T09:44:08.335Z,21.13
2023-02-25T09:46:35.211Z,21.16
2023-02-25T09:49:02.889Z,21.17
2023-02-25T09:51:40.427Z,21.19
2023-02-25T09:54:18.624Z,21.17
2023-02-25T09:56:44.957Z,21.19
2023-02-25T09:59:13.173Z,21.16
2023-02-25T10:01:41.273Z,21.13
2023-02-25T10:04:09.505Z,21.10
2023-02-25T10:06:39.485Z,21.13
2023-02-25T10:09:11.973Z,21.14
2023-02-25T10:11:41.500Z,21.14
2023-02-25T10:14:18.926Z,21.08
2023-02-25T10:16:51.341Z,21.13
2023-02-25T10:19:28.725Z,21.18
2023-02-25T10:22:00.799Z,20.98
2023-02-25T10:24:30.853Z,20.95
2023-02-25T10:27:16.124Z,20.93
2023-02-25T10:29:49.576Z,20.93
2023-02-25T10:32:17.441Z,20.92
2023-02-25T10:34:43.997Z,20.86
2023-02-25T10:37:15.501Z,20.90
2023-02-25T10:39:42.187Z,20.90
2023-02-25T10:42:10.091Z,20.91
2023-02-25T10:44:36.411Z,20.90
2023-02-25T10:47:03.835Z,20.90
2023-02-25T10:49:30.397Z,20.88
2023-02-25T10:51:57.946Z,20.90
2023-02-25T10:54:27.204Z,20.89
2023-02-25T10:56:53.524Z,20.89
2023-02-25T10:59:25.968Z,20.89
2023-02-25T11:01:52.320Z,20.88
2023-02-25T11:04:19.122Z,20.87
2023-02-25T11:06:45.448Z,20.86
2023-02-25T11:09:20.951Z,20.87
2023-02-25T11:12:06.076Z,20.84
2023-02-25T11:14:33.108Z,20.84
2023-02-25T11:17:02.467Z,20.84
2023-02-25T11:19:29.556Z,20.82
2023-02-25T11:21:55.956Z,20.81
2023-02-25T11:24:23.738Z,20.80
2023-02-25T11:26:50.972Z,20.77
2023-02-25T11:29:21.400Z,20.76
2023-02-25T11:31:52.055Z,20.67
2023-02-25T11:34:25.618Z,20.74
2023-02-25T11:36:52.640Z,20.73
2023-02-25T11:39:25.810Z,20.77
2023-02-25T11:41:52.817Z,20.78
2023-02-25T11:44:20.601Z,20.79
2023-02-25T11:46:49.372Z,20.80
2023-02-25T11:49:15.623Z,20.81
2023-02-25T11:51:47.264Z,20.78
2023-02-25T11:54:13.987Z,20.78
2023-02-25T11:56:43.695Z,20.76
2023-02-25T11:59:13.868Z,20.76
2023-02-25T12:01:59.035Z,20.75
2023-02-25T12:04:35.461Z,20.78
2023-02-25T12:07:10.973Z,20.81
2023-02-25T12:09:37.235Z,20.82
2023-02-25T12:12:26.227Z,20.81
2023-02-25T12:15:11.724Z,20.77
2023-02-25T12:17:40.728Z,20.92
2023-02-25T12:20:25.990Z,20.87
2023-02-25T12:22:52.252Z,20.92
2023-02-25T12:25:24.580Z,20.84
2023-02-25T12:28:04.184Z,20.80
2023-02-25T12:30:33.507Z,20.80
2023-02-25T12:33:06.009Z,20.78
2023-02-25T12:35:49.592Z,20.80
2023-02-25T12:38:16.006Z,20.80
2023-02-25T12:40:53.587Z,20.81
2023-02-25T12:43:41.236Z,20.82
2023-02-25T12:46:10.935Z,20.84
2023-02-25T12:48:46.694Z,20.84
2023-02-25T12:51:22.458Z,20.84
2023-02-25T12:53:58.367Z,20.83
2023-02-25T12:56:30.314Z,20.83
2023-02-25T12:59:11.331Z,20.83
2023-02-25T13:01:55.905Z,20.82
2023-02-25T13:04:41.090Z,20.82
2023-02-25T13:07:14.411Z,20.80
2023-02-25T13:09:50.966Z,20.82
2023-02-25T13:12:35.919Z,20.78
2023-02-25T13:15:09.200Z,20.82
2023-02-25T13:17:52.479Z,20.84
2023-02-25T13:20:18.730Z,20.82
2023-02-25T13:22:51.756Z,20.81
2023-02-25T13:25:21.003Z,20.82
2023-02-25T13:27:59.184Z,20.83
2023-02-25T13:30:48.794Z,20.87
2023-02-25T13:33:20.964Z,20.85
2023-02-25T13:36:02.512Z,20.84
2023-02-25T13:38:36.659Z,20.84
2023-02-25T13:41:22.642Z,20.83
2023-02-25T13:43:51.071Z,20.87
2023-02-25T13:46:37.605Z,20.92
2023-02-25T13:49:09.584Z,20.93
2023-02-25T13:51:51.160Z,20.93
2023-02-25T13:54:26.597Z,20.91
2023-02-25T13:56:56.486Z,20.91
2023-02-25T13:59:25.833Z,20.92
2023-02-25T14:02:00.386Z,20.93
2023-02-25T14:04:50.652Z,20.88
2023-02-25T14:07:35.959Z,20.88
2023-02-25T14:10:14.536Z,20.89
2023-02-25T14:12:51.294Z,20.89
2023-02-25T14:15:33.687Z,20.90
2023-02-25T14:18:19.515Z,20.89
2023-02-25T14:20:52.989Z,20.91
2023-02-25T14:23:33.099Z,20.90
2023-02-25T14:26:11.516Z,20.91
2023-02-25T14:28:41.000Z,20.25
2023-02-25T14:31:16.408Z,20.82
2023-02-25T14:33:45.741Z,21.18
2023-02-25T14:36:28.617Z,21.52
2023-02-25T14:38:55.387Z,21.58
2023-02-25T14:41:22.062Z,21.81
2023-02-25T14:43:49.126Z,21.95
2023-02-25T14:46:31.842Z,22.00
2023-02-25T14:48:58.117Z,22.05
2023-02-25T14:51:32.352Z,22.07
2023-02-25T14:54:17.641Z,22.06
2023-02-25T14:57:07.224Z,21.57
2023-02-25T14:59:33.648Z,21.39
2023-02-25T15:02:02.798Z,21.27
2023-02-25T15:04:35.544Z,21.31
2023-02-25T15:07:11.080Z,21.31
2023-02-25T15:09:38.747Z,21.26
2023-02-25T15:12:07.553Z,21.28
2023-02-25T15:14:42.640Z,21.23
2023-02-25T15:17:29.043Z,21.16
2023-02-25T15:20:18.894Z,21.12
2023-02-25T15:23:07.677Z,21.15
2023-02-25T15:25:41.716Z,21.14
2023-02-25T15:28:26.821Z,21.18
2023-02-25T15:31:02.546Z,21.17
2023-02-25T15:33:38.207Z,21.07
2023-02-25T15:36:13.998Z,21.08
2023-02-25T15:39:05.369Z,20.97
2023-02-25T15:41:34.388Z,20.97
2023-02-25T15:44:06.685Z,20.30
2023-02-25T15:46:36.449Z,20.51
2023-02-25T15:49:20.085Z,20.74
2023-02-25T15:51:46.526Z,20.82
2023-02-25T15:54:28.255Z,20.86
2023-02-25T15:56:55.077Z,20.87
2023-02-25T15:59:39.162Z,20.89
2023-02-25T16:02:24.112Z,20.88
2023-02-25T16:04:50.480Z,20.85
2023-02-25T16:07:17.656Z,20.84
2023-02-25T16:09:46.178Z,20.81
2023-02-25T16:12:13.329Z,20.83
2023-02-25T16:14:39.746Z,20.82
2023-02-25T16:17:06.002Z,20.84
2023-02-25T16:19:35.900Z,20.83
2023-02-25T16:22:19.041Z,20.82
2023-02-25T16:24:49.142Z,20.81
2023-02-25T16:27:33.853Z,20.80
2023-02-25T16:30:17.410Z,20.80
2023-02-25T16:32:49.225Z,20.79
2023-02-25T16:35:22.123Z,20.79
2023-02-25T16:37:56.982Z,20.76
2023-02-25T16:40:27.984Z,20.74
2023-02-25T16:42:54.382Z,20.78
2023-02-25T16:45:44.350Z,20.80
2023-02-25T16:48:17.940Z,20.79
2023-02-25T16:50:47.558Z,20.79
2023-02-25T16:53:23.392Z,20.77
2023-02-25T16:55:49.730Z,20.76
2023-02-25T16:58:19.305Z,20.76
2023-02-25T17:00:51.036Z,20.76
2023-02-25T17:03:18.659Z,20.75
2023-02-25T17:05:45.077Z,20.74
2023-02-25T17:08:14.411Z,20.73
2023-02-25T17:10:45.183Z,20.63
2023-02-25T17:13:13.263Z,20.60
2023-02-25T17:15:39.613Z,20.50
2023-02-25T17:18:07.634Z,20.39
2023-02-25T17:20:34.140Z,20.52
2023-02-25T17:23:02.915Z,20.59
2023-02-25T17:25:31.453Z,20.61
2023-02-25T17:27:58.883Z,20.62
2023-02-25T17:30:35.788Z,20.64
2023-02-25T17:33:02.212Z,20.66
2023-02-25T17:35:28.601Z,20.66
2023-02-25T17:37:55.171Z,20.66
2023-02-25T17:40:23.745Z,20.65
2023-02-25T17:42:50.066Z,20.65
2023-02-25T17:45:39.918Z,20.66
2023-02-25T17:48:11.634Z,20.66
2023-02-25T17:50:37.980Z,20.65
2023-02-25T17:53:05.271Z,20.65
2023-02-25T17:55:33.480Z,20.64
2023-02-25T17:58:00.149Z,20.63
2023-02-25T18:00:35.601Z,20.63
2023-02-25T18:03:15.928Z,20.64
2023-02-25T18:05:49.057Z,20.63
2023-02-25T18:08:16.561Z,20.64
2023-02-25T18:10:46.626Z,20.64
2023-02-25T18:13:19.910Z,20.70
2023-02-25T18:15:50.767Z,20.67
2023-02-25T18:18:20.587Z,20.78
2023-02-25T18:20:47.449Z,20.73
2023-02-25T18:23:13.739Z,20.77
2023-02-25T18:25:43.564Z,20.77
2023-02-25T18:28:11.930Z,20.74
2023-02-25T18:30:38.318Z,20.71
2023-02-25T18:33:04.757Z,20.69
2023-02-25T18:35:31.316Z,20.69
2023-02-25T18:37:57.798Z,20.71
2023-02-25T18:40:39.013Z,20.70
2023-02-25T18:43:05.350Z,20.70
2023-02-25T18:45:31.883Z,20.78
2023-02-25T18:48:00.160Z,20.76
2023-02-25T18:50:28.779Z,20.74
2023-02-25T18:52:55.202Z,20.74
2023-02-25T18:55:25.439Z,20.75
2023-02-25T18:57:51.910Z,20.75
2023-02-25T19:00:19.034Z,20.76
2023-02-25T19:02:49.282Z,20.75
2023-02-25T19:05:16.020Z,20.77
2023-02-25T19:07:42.361Z,20.76
2023-02-25T19:10:08.938Z,20.79
2023-02-25T19:12:35.599Z,20.77
2023-02-25T19:15:02.821Z,20.77
2023-02-25T19:17:29.232Z,20.82
2023-02-25T19:19:55.570Z,20.87
2023-02-25T19:22:21.898Z,20.80
2023-02-25T19:24:48.243Z,20.79
2023-02-25T19:27:21.757Z,20.74
2023-02-25T19:29:48.683Z,20.76
2023-02-25T19:32:15.103Z,20.75
2023-02-25T19:34:42.630Z,20.74
2023-02-25T19:37:08.954Z,20.74
2023-02-25T19:39:35.309Z,20.73
2023-02-25T19:42:01.632Z,20.73
2023-02-25T19:44:28.040Z,20.61
2023-02-25T19:46:54.392Z,20.53
2023-02-25T19:49:21.038Z,20.65
2023-02-25T19:51:47.380Z,20.66
2023-02-25T19:54:13.710Z,20.65
2023-02-25T19:56:40.066Z,20.64
2023-02-25T19:59:08.311Z,20.65
2023-02-25T20:01:34.653Z,20.64
2023-02-25T20:04:01.191Z,20.65
2023-02-25T20:06:27.802Z,20.65
2023-02-25T20:08:55.754Z,20.66
2023-02-25T20:11:23.310Z,20.65
2023-02-25T20:13:50.128Z,20.65
2023-02-25T20:16:16.494Z,20.65
2023-02-25T20:18:42.831Z,20.64
2023-02-25T20:21:09.161Z,20.64
2023-02-25T20:23:35.523Z,20.63
2023-02-25T20:26:03.471Z,20.62
2023-02-25T20:28:29.801Z,20.63
2023-02-25T20:31:03.032Z,20.61
2023-02-25T20:33:29.864Z,20.62
2023-02-25T20:35:56.184Z,20.63
2023-02-25T20:38:23.750Z,20.63
2023-02-25T20:40:50.070Z,20.65
2023-02-25T20:43:17.085Z,20.65
2023-02-25T20:45:43.734Z,20.65
2023-02-25T20:48:13.820Z,20.63
2023-02-25T20:50:40.138Z,20.64
2023-02-25T20:53:06.721Z,20.63
2023-02-25T20:55:33.548Z,20.63
2023-02-25T20:58:00.281Z,20.61
2023-02-25T21:00:27.562Z,20.61
2023-02-25T21:02:54.106Z,20.61
2023-02-25T21:05:20.791Z,20.62
2023-02-25T21:07:47.372Z,20.61
2023-02-25T21:10:14.041Z,20.63
2023-02-25T21:12:40.560Z,20.62
2023-02-25T21:15:07.157Z,20.62
2023-02-25T21:17:33.493Z,20.62
2023-02-25T21:19:59.830Z,20.58
2023-02-25T21:22:26.170Z,20.53
2023-02-25T21:24:52.480Z,20.51
2023-02-25T21:27:18.846Z,20.51
2023-02-25T21:29:45.183Z,20.51
2023-02-25T21:32:11.619Z,20.51
2023-02-25T21:34:37.981Z,20.51
2023-02-25T21:37:04.316Z,20.51
2023-02-25T21:39:30.633Z,20.50
2023-02-25T21:41:57.002Z,20.50
2023-02-25T21:44:23.353Z,20.51
2023-02-25T21:46:49.676Z,20.50
2023-02-25T21:49:16.076Z,20.50
2023-02-25T21:51:42.385Z,20.50
2023-02-25T21:54:08.892Z,20.49
2023-02-25T21:56:35.357Z,20.49
2023-02-25T21:59:05.448Z,20.47
2023-02-25T22:01:38.761Z,20.47
2023-02-25T22:04:05.230Z,20.46
2023-02-25T22:06:31.620Z,20.45
2023-02-25T22:08:57.982Z,20.44
2023-02-25T22:11:25.283Z,20.43
2023-02-25T22:13:52.634Z,20.41
2023-02-25T22:16:19.019Z,20.41
2023-02-25T22:18:45.597Z,20.40
2023-02-25T22:21:15.907Z,20.39
2023-02-25T22:23:43.475Z,20.39
2023-02-25T22:26:10.670Z,20.36
2023-02-25T22:28:37.051Z,20.35
2023-02-25T22:31:03.590Z,20.33
2023-02-25T22:33:30.707Z,20.33
2023-02-25T22:35:57.325Z,20.31
2023-02-25T22:38:23.675Z,20.30
2023-02-25T22:40:50.029Z,20.30
2023-02-25T22:43:16.386Z,20.29
2023-02-25T22:45:42.718Z,20.28
2023-02-25T22:48:09.043Z,20.26
2023-02-25T22:50:35.381Z,20.28
2023-02-25T22:53:01.720Z,20.29
2023-02-25T22:55:28.033Z,20.30
2023-02-25T22:57:54.362Z,20.29
2023-02-25T23:00:20.778Z,20.31
2023-02-25T23:02:47.147Z,20.32
2023-02-25T23:05:13.482Z,20.33
2023-02-25T23:07:39.803Z,20.34
2023-02-25T23:10:06.247Z,20.39
2023-02-25T23:12:32.580Z,20.40
2023-02-25T23:14:58.927Z,20.37
2023-02-25T23:17:25.307Z,20.36
2023-02-25T23:19:57.733Z,20.36
2023-02-25T23:22:26.832Z,20.36
2023-02-25T23:24:53.195Z,20.35
2023-02-25T23:27:19.536Z,20.34
2023-02-25T23:29:45.858Z,20.33
2023-02-25T23:32:12.259Z,20.33
2023-02-25T23:34:38.602Z,20.33
2023-02-25T23:37:04.965Z,20.38
2023-02-25T23:39:31.357Z,20.36
2023-02-25T23:41:57.697Z,20.36
2023-02-25T23:44:24.052Z,20.38
2023-02-25T23:46:50.427Z,20.38
2023-02-25T23:49:16.769Z,20.39
2023-02-25T23:51:43.627Z,20.40
2023-02-25T23:54:10.870Z,20.41
2023-02-25T23:56:37.191Z,20.36
2023-02-25T23:59:03.530Z,20.34
